Terminal Aerodrome Forecast
Issued by NWS

Home | Current Version | Previous Version | Text Only | Print | Product List | Glossary On
Versions: 1 2 3 4 5 6 7 8 9 10 11 12 13 14 15 16 17 18 19 20 21 22
000
FTUS43 KDVN 271700
TAFCID
TAF
KCID 271739Z 2718/2818 05008KT P6SM OVC018
     FM280000 09006KT P6SM OVC018
     FM280600 13007KT 5SM BR OVC015
     FM281300 13012G20KT P6SM SCT020 BKN250=

USA.gov is the U.S. government's official web portal to all federal, state and local government web resources and services.